createdAt,value
2022-12-19T00:01:31.258Z,102101.72
2022-12-19T00:04:01.898Z,102158.56
2022-12-19T00:06:35.865Z,102275.72
2022-12-19T00:09:05.356Z,102300.84
2022-12-19T00:11:35.094Z,101969.88
2022-12-19T00:14:04.418Z,102019.19
2022-12-19T00:16:35.211Z,102283.38
2022-12-19T00:19:04.654Z,102279.97
2022-12-19T00:21:35.628Z,102226.91
2022-12-19T00:24:05.215Z,102233.50
2022-12-19T00:26:41.780Z,102225.06
2022-12-19T00:29:14.389Z,102291.31
2022-12-19T00:31:45.587Z,102269.38
2022-12-19T00:34:14.963Z,102194.50
2022-12-19T00:36:44.407Z,102281.25
2022-12-19T00:39:13.657Z,102275.09
2022-12-19T00:41:43.822Z,102240.13
2022-12-19T00:44:14.754Z,102196.16
2022-12-19T00:46:52.702Z,102127.94
2022-12-19T00:49:22.548Z,102152.84
2022-12-19T00:51:51.909Z,102103.34
2022-12-19T00:54:21.167Z,102092.78
2022-12-19T00:56:50.772Z,102191.28
2022-12-19T00:59:23.941Z,102246.91
2022-12-19T01:01:57.558Z,102247.63
2022-12-19T01:04:28.579Z,102110.38
2022-12-19T01:07:02.127Z,102118.88
2022-12-19T01:09:32.986Z,102128.59
2022-12-19T01:12:19.430Z,101965.91
2022-12-19T01:14:50.323Z,102256.81
2022-12-19T01:17:21.068Z,102222.59
2022-12-19T01:19:50.440Z,102251.03
2022-12-19T01:22:19.742Z,102102.88
2022-12-19T01:24:48.939Z,102120.16
2022-12-19T01:27:18.450Z,102191.38
2022-12-19T01:29:52.247Z,102105.50
2022-12-19T01:32:23.988Z,102232.50
2022-12-19T01:34:53.269Z,102181.78
2022-12-19T01:37:22.808Z,102172.22
2022-12-19T01:39:52.091Z,102191.19
2022-12-19T01:42:24.254Z,102273.72
2022-12-19T01:45:33.838Z,102253.25
2022-12-19T01:48:16.684Z,102224.09
2022-12-19T01:51:01.302Z,102120.16
2022-12-19T01:53:32.350Z,102250.97
2022-12-19T01:56:08.486Z,102220.28
2022-12-19T01:58:40.240Z,102190.00
2022-12-19T02:01:09.562Z,102158.88
2022-12-19T02:03:41.179Z,102221.91
2022-12-19T02:06:11.470Z,102188.06
2022-12-19T02:08:42.963Z,102254.03
2022-12-19T02:11:12.219Z,102206.59
2022-12-19T02:13:41.947Z,102188.50
2022-12-19T02:16:23.126Z,102168.88
2022-12-19T02:19:06.915Z,102161.66
2022-12-19T02:21:47.158Z,102204.06
2022-12-19T02:24:53.590Z,102081.31
2022-12-19T02:28:04.643Z,102222.44
2022-12-19T02:30:55.725Z,101965.53
2022-12-19T02:33:32.452Z,102178.34
2022-12-19T02:36:08.853Z,102142.94
2022-12-19T02:38:46.084Z,102087.56
2022-12-19T02:41:20.750Z,102270.97
2022-12-19T02:43:53.204Z,102133.22
2022-12-19T02:46:30.546Z,102070.69
2022-12-19T02:49:00.794Z,102183.16
2022-12-19T02:51:30.126Z,102203.56
2022-12-19T02:53:59.773Z,101973.13
2022-12-19T02:56:42.178Z,102262.19
2022-12-19T02:59:23.544Z,102226.56
2022-12-19T03:01:59.558Z,102164.06
2022-12-19T03:04:42.202Z,102225.84
2022-12-19T03:07:18.174Z,102115.44
2022-12-19T03:09:54.440Z,102007.13
2022-12-19T03:12:30.951Z,102252.25
2022-12-19T03:15:01.958Z,102185.38
2022-12-19T03:17:37.418Z,102033.00
2022-12-19T03:20:11.973Z,102238.72
2022-12-19T03:22:41.331Z,102048.66
2022-12-19T03:25:11.197Z,102062.03
2022-12-19T03:27:42.166Z,102208.34
2022-12-19T03:30:14.391Z,102177.28
2022-12-19T03:32:48.266Z,102108.69
2022-12-19T03:35:22.534Z,102206.09
2022-12-19T03:37:53.873Z,102078.59
2022-12-19T03:40:26.714Z,102188.06
2022-12-19T03:43:12.721Z,102152.00
2022-12-19T03:45:59.455Z,102217.31
2022-12-19T03:48:35.455Z,102248.78
2022-12-19T03:51:14.711Z,102258.00
2022-12-19T03:53:52.254Z,102260.28
2022-12-19T03:56:28.161Z,102185.25
2022-12-19T03:59:03.978Z,102218.72
2022-12-19T04:01:36.399Z,102162.97
2022-12-19T04:04:15.375Z,102026.81
2022-12-19T04:06:45.899Z,102204.91
2022-12-19T04:09:22.156Z,102043.75
2022-12-19T04:11:55.946Z,102054.19
2022-12-19T04:14:30.517Z,102063.63
2022-12-19T04:17:08.956Z,102177.09
2022-12-19T04:19:45.920Z,102111.78
2022-12-19T04:22:23.127Z,102161.72
2022-12-19T04:24:54.506Z,102208.59
2022-12-19T04:27:24.679Z,102192.25
2022-12-19T04:29:57.701Z,102182.03
2022-12-19T04:32:28.932Z,102174.16
2022-12-19T04:35:03.788Z,102201.53
2022-12-19T04:37:33.591Z,102200.66
2022-12-19T04:40:02.894Z,102175.53
2022-12-19T04:42:32.072Z,102187.63
2022-12-19T04:45:01.338Z,102167.38
2022-12-19T04:47:30.466Z,102155.63
2022-12-19T04:50:00.998Z,102176.75
2022-12-19T04:52:30.095Z,102164.00
2022-12-19T04:54:59.386Z,102156.28
2022-12-19T04:57:34.118Z,102156.69
2022-12-19T05:00:07.787Z,102136.81
2022-12-19T05:02:37.223Z,102140.59
2022-12-19T05:05:08.414Z,102150.53
2022-12-19T05:07:37.688Z,102137.75
2022-12-19T05:10:08.214Z,102146.38
2022-12-19T05:12:37.475Z,102143.41
2022-12-19T05:15:09.712Z,102138.19
2022-12-19T05:17:41.464Z,102135.88
2022-12-19T05:20:13.367Z,102142.94
2022-12-19T05:22:43.409Z,102137.53
2022-12-19T05:25:12.676Z,102134.44
2022-12-19T05:27:41.871Z,102117.53
2022-12-19T05:30:11.974Z,102135.03
2022-12-19T05:32:41.126Z,102132.75
2022-12-19T05:35:12.002Z,102129.19
2022-12-19T05:37:41.186Z,102115.03
2022-12-19T05:40:11.406Z,102116.50
2022-12-19T05:42:40.505Z,102121.06
2022-12-19T05:45:10.790Z,102116.50
2022-12-19T05:47:40.003Z,102118.72
2022-12-19T05:50:11.910Z,102104.59
2022-12-19T05:52:41.284Z,102120.97
2022-12-19T05:55:11.386Z,102101.63
2022-12-19T05:57:40.487Z,102093.94
2022-12-19T06:00:11.126Z,102107.44
2022-12-19T06:02:40.857Z,102114.56
2022-12-19T06:05:11.881Z,102104.88
2022-12-19T06:07:41.009Z,102079.50
2022-12-19T06:10:10.483Z,102076.63
2022-12-19T06:12:39.608Z,102078.94
2022-12-19T06:15:09.818Z,102062.72
2022-12-19T06:17:38.948Z,102078.25
2022-12-19T06:20:09.249Z,102089.38
2022-12-19T06:22:39.924Z,102090.25
2022-12-19T06:25:09.946Z,102059.00
2022-12-19T06:27:39.251Z,102067.69
2022-12-19T06:30:09.578Z,102086.75
2022-12-19T06:32:38.760Z,102083.97
2022-12-19T06:35:09.060Z,102044.59
2022-12-19T06:37:39.763Z,102056.25
2022-12-19T06:40:30.706Z,102064.69
2022-12-19T06:42:58.729Z,102077.91
2022-12-19T06:45:27.849Z,102071.78
2022-12-19T06:47:58.282Z,102071.69
2022-12-19T06:50:28.989Z,102063.63
2022-12-19T06:53:00.456Z,102062.31
2022-12-19T06:55:30.205Z,102047.53
2022-12-19T06:57:59.322Z,102045.09
2022-12-19T07:00:28.706Z,102007.94
2022-12-19T07:02:59.703Z,102048.88
2022-12-19T07:05:33.053Z,102021.16
2022-12-19T07:08:04.060Z,102037.72
2022-12-19T07:10:33.829Z,102032.41
2022-12-19T07:13:03.095Z,102038.16
2022-12-19T07:15:33.921Z,102029.84
2022-12-19T07:18:04.195Z,102013.16
2022-12-19T07:20:37.909Z,102028.53
2022-12-19T07:23:16.318Z,102031.06
2022-12-19T07:25:45.613Z,102028.19
2022-12-19T07:28:15.241Z,102021.06
2022-12-19T07:30:44.581Z,101999.47
2022-12-19T07:33:18.284Z,102010.44
2022-12-19T07:35:50.433Z,101966.16
2022-12-19T07:38:23.309Z,102012.09
2022-12-19T07:40:52.379Z,102007.88
2022-12-19T07:43:21.489Z,101995.19
2022-12-19T07:45:56.698Z,102002.56
2022-12-19T07:48:28.097Z,102003.19
2022-12-19T07:50:57.179Z,101982.19
2022-12-19T07:53:29.571Z,101989.56
2022-12-19T07:55:58.802Z,102004.78
2022-12-19T07:58:28.073Z,101999.69
2022-12-19T08:00:58.267Z,101991.91
2022-12-19T08:03:27.488Z,101977.81
2022-12-19T08:06:02.043Z,101972.16
2022-12-19T08:08:33.221Z,101940.16
2022-12-19T08:11:09.420Z,101965.03
2022-12-19T08:13:43.288Z,101944.34
2022-12-19T08:16:15.899Z,101927.22
2022-12-19T08:18:45.325Z,101936.69
2022-12-19T08:21:14.914Z,101926.13
2022-12-19T08:23:46.414Z,101949.69
2022-12-19T08:26:17.375Z,101939.00
2022-12-19T08:28:49.006Z,101937.88
2022-12-19T08:31:19.978Z,101936.34
2022-12-19T08:33:49.973Z,101930.22
2022-12-19T08:36:20.228Z,101925.00
2022-12-19T08:38:51.619Z,101914.56
2022-12-19T08:41:21.114Z,101894.34
2022-12-19T08:43:51.911Z,101903.72
2022-12-19T08:46:21.632Z,101905.72
2022-12-19T08:48:51.507Z,101886.63
2022-12-19T08:51:21.378Z,101899.75
2022-12-19T08:53:53.737Z,101869.03
2022-12-19T08:56:24.196Z,101892.38
2022-12-19T08:58:54.124Z,101868.16
2022-12-19T09:01:24.348Z,101889.50
2022-12-19T09:05:36.895Z,101897.06
2022-12-19T09:06:43.439Z,101890.25
2022-12-19T09:09:14.044Z,101878.38
2022-12-19T09:11:46.640Z,101886.00
2022-12-19T09:14:20.905Z,101883.31
2022-12-19T09:16:53.308Z,101858.19
2022-12-19T09:19:22.435Z,101883.94
2022-12-19T09:21:51.707Z,101879.50
2022-12-19T09:24:22.373Z,101870.84
2022-12-19T09:26:51.495Z,101875.75
2022-12-19T09:29:21.951Z,101829.44
2022-12-19T09:31:56.115Z,101834.00
2022-12-19T09:34:37.564Z,101856.97
2022-12-19T09:37:09.036Z,101850.00
2022-12-19T09:39:46.938Z,101834.69
2022-12-19T09:42:50.303Z,101829.25
2022-12-19T09:45:35.771Z,101817.81
2022-12-19T09:48:05.905Z,101610.47
2022-12-19T09:50:51.133Z,101820.38
2022-12-19T09:53:26.484Z,101804.69
2022-12-19T09:56:00.200Z,101808.50
2022-12-19T09:58:41.175Z,101768.34
2022-12-19T10:01:20.153Z,101792.31
2022-12-19T10:03:55.683Z,101778.91
2022-12-19T10:07:11.736Z,101772.69
2022-12-19T10:11:16.780Z,101775.03
2022-12-19T10:12:45.911Z,101775.81
2022-12-19T10:15:30.398Z,101752.53
2022-12-19T10:18:14.840Z,101755.88
2022-12-19T10:20:52.450Z,101749.22
2022-12-19T10:23:58.501Z,101700.38
2022-12-19T10:26:36.041Z,101717.16
2022-12-19T10:29:21.387Z,101719.38
2022-12-19T10:31:56.827Z,101714.28
2022-12-19T10:34:41.010Z,101658.28
2022-12-19T10:37:28.908Z,101679.25
2022-12-19T10:40:10.448Z,101710.97
2022-12-19T10:42:52.866Z,101713.84
2022-12-19T10:45:25.834Z,101673.47
2022-12-19T10:47:59.234Z,101695.22
2022-12-19T10:50:31.107Z,101683.44
2022-12-19T10:53:10.870Z,101665.97
2022-12-19T10:55:50.835Z,101677.47
2022-12-19T10:58:24.451Z,101639.47
2022-12-19T11:01:12.049Z,101668.63
2022-12-19T11:03:43.452Z,101645.22
2022-12-19T11:07:01.196Z,101653.50
2022-12-19T11:09:32.813Z,101627.13
2022-12-19T11:15:24.873Z,101607.53
2022-12-19T11:21:17.822Z,101603.50
2022-12-19T11:24:26.532Z,101608.50
2022-12-19T11:29:34.344Z,101615.59
2022-12-19T11:29:34.919Z,101591.84
2022-12-19T11:30:45.722Z,101603.25
2022-12-19T11:32:43.737Z,101595.34
2022-12-19T11:35:22.755Z,101564.06
2022-12-19T11:37:57.898Z,101564.16
2022-12-19T11:40:35.457Z,101573.19
2022-12-19T11:46:09.112Z,101563.56
2022-12-19T11:48:42.995Z,101537.91
2022-12-19T11:51:22.951Z,101558.63
2022-12-19T11:54:00.212Z,101554.06
2022-12-19T11:56:31.436Z,101533.56
2022-12-19T11:59:09.581Z,101536.41
2022-12-19T12:01:45.990Z,101520.31
2022-12-19T12:04:40.801Z,101510.50
2022-12-19T12:07:58.671Z,101515.22
2022-12-19T12:15:42.139Z,101501.53
2022-12-19T12:24:23.213Z,101476.47
2022-12-19T12:27:11.796Z,101485.13
2022-12-19T12:31:07.691Z,101458.00
2022-12-19T12:31:39.620Z,101443.69
2022-12-19T12:31:39.809Z,101470.31
2022-12-19T12:31:56.211Z,101444.56
2022-12-19T12:35:34.264Z,101432.09
2022-12-19T12:40:53.457Z,101409.91
2022-12-19T12:43:36.173Z,101402.31
2022-12-19T12:46:07.151Z,101382.38
2022-12-19T12:48:40.314Z,101389.75
2022-12-19T12:51:10.925Z,101375.31
2022-12-19T12:53:45.903Z,101324.06
2022-12-19T12:56:18.377Z,101363.50
2022-12-19T12:59:22.789Z,101352.50
2022-12-19T13:01:55.409Z,101319.22
2022-12-19T13:04:30.648Z,101334.25
2022-12-19T13:07:31.455Z,101316.63
2022-12-19T13:10:27.059Z,101321.53
2022-12-19T13:13:01.610Z,101321.25
2022-12-19T13:15:38.001Z,101305.22
2022-12-19T13:18:29.238Z,101303.75
2022-12-19T13:20:58.918Z,101284.47
2022-12-19T13:23:48.658Z,101291.34
2022-12-19T13:26:50.172Z,101286.22
2022-12-19T13:29:51.741Z,101264.69
2022-12-19T13:32:21.323Z,101279.69
2022-12-19T13:35:01.708Z,101260.63
2022-12-19T13:39:48.930Z,101259.34
2022-12-19T13:40:59.491Z,101253.50
2022-12-19T13:43:48.248Z,101231.28
2022-12-19T13:46:29.258Z,101208.88
2022-12-19T13:49:04.563Z,101189.47
2022-12-19T13:51:44.819Z,101213.69
2022-12-19T13:54:33.408Z,101179.78
2022-12-19T13:57:09.094Z,101172.56
2022-12-19T13:59:59.260Z,101168.44
2022-12-19T14:02:34.884Z,101190.81
2022-12-19T14:05:36.097Z,101144.72
2022-12-19T14:08:21.288Z,101155.66
2022-12-19T14:11:32.239Z,101135.41
2022-12-19T14:14:12.638Z,101074.75
2022-12-19T14:16:46.442Z,101130.44
2022-12-19T14:19:23.955Z,101113.69
2022-12-19T14:22:04.925Z,101123.72
2022-12-19T14:24:41.486Z,101114.03
2022-12-19T14:28:17.253Z,101108.91
2022-12-19T14:30:28.326Z,101080.97
2022-12-19T14:33:46.640Z,101068.63
2022-12-19T14:36:06.196Z,101068.84
2022-12-19T14:39:23.276Z,101065.31
2022-12-19T14:42:01.295Z,101068.91
2022-12-19T14:52:51.880Z,101028.22
2022-12-19T14:53:52.025Z,101030.91
2022-12-19T14:54:25.811Z,101003.34
2022-12-19T14:54:40.343Z,100997.19
2022-12-19T14:59:04.417Z,100993.44
2022-12-19T15:01:37.146Z,100967.06
2022-12-19T15:04:50.766Z,100976.25
2022-12-19T15:07:12.335Z,100956.97
2022-12-19T15:10:58.022Z,100944.19
2022-12-19T15:14:57.368Z,100937.69
2022-12-19T15:16:00.840Z,100931.78
2022-12-19T15:18:41.076Z,100924.19
2022-12-19T15:21:12.972Z,100944.59
2022-12-19T15:23:45.932Z,100933.69
2022-12-19T15:26:17.504Z,100922.03
2022-12-19T15:28:51.435Z,100926.34
2022-12-19T15:31:30.431Z,100918.66
2022-12-19T15:34:33.147Z,100936.56
2022-12-19T15:36:48.878Z,100917.09
2022-12-19T15:39:20.290Z,100885.88
2022-12-19T15:41:52.761Z,100870.34
2022-12-19T15:44:26.675Z,100888.53
2022-12-19T15:46:56.635Z,100886.78
2022-12-19T15:49:25.908Z,100854.13
2022-12-19T15:51:55.200Z,100858.19
2022-12-19T15:57:24.561Z,100784.94
2022-12-19T15:59:54.412Z,100864.00
2022-12-19T16:02:27.938Z,100856.31
2022-12-19T16:05:07.343Z,100826.59
2022-12-19T16:07:36.537Z,100856.47
2022-12-19T16:10:08.646Z,100825.50
2022-12-19T16:12:40.909Z,100829.38
2022-12-19T16:15:17.356Z,100822.81
2022-12-19T16:17:46.615Z,100788.78
2022-12-19T16:20:20.445Z,100808.38
2022-12-19T16:22:51.014Z,100794.63
2022-12-19T16:25:22.916Z,100731.16
2022-12-19T16:27:56.852Z,100644.78
2022-12-19T16:30:29.920Z,100752.41
2022-12-19T16:32:59.749Z,100801.50
2022-12-19T16:38:20.931Z,100704.47
2022-12-19T16:40:53.793Z,100764.72
2022-12-19T16:43:31.150Z,100679.19
2022-12-19T16:46:02.083Z,100576.31
2022-12-19T16:48:32.249Z,100755.66
2022-12-19T16:51:01.826Z,100684.81
2022-12-19T16:53:31.631Z,100678.41
2022-12-19T16:56:02.879Z,100675.19
2022-12-19T16:58:34.489Z,100514.31
2022-12-19T17:01:06.207Z,100563.69
2022-12-19T17:03:41.372Z,100648.75
2022-12-19T17:06:13.223Z,100647.06
2022-12-19T17:08:42.646Z,100610.28
2022-12-19T17:11:18.160Z,100658.78
2022-12-19T17:13:49.929Z,100588.81
2022-12-19T17:16:19.398Z,100688.16
2022-12-19T17:18:49.380Z,100643.50
2022-12-19T17:21:20.043Z,100607.34
2022-12-19T17:23:50.194Z,100669.09
2022-12-19T17:26:21.655Z,100597.78
2022-12-19T17:28:51.064Z,100691.97
2022-12-19T17:31:24.962Z,100493.31
2022-12-19T17:33:57.007Z,100637.53
2022-12-19T17:36:36.521Z,100559.41
2022-12-19T17:39:19.551Z,100642.19
2022-12-19T17:41:51.121Z,100616.66
2022-12-19T17:44:20.922Z,100482.88
2022-12-19T17:46:51.164Z,100657.53
2022-12-19T17:49:28.701Z,100492.19
2022-12-19T17:51:58.922Z,100573.13
2022-12-19T17:54:30.837Z,100282.78
2022-12-19T17:57:01.750Z,100566.94
2022-12-19T17:59:31.188Z,100584.81
2022-12-19T18:02:00.718Z,100567.19
2022-12-19T18:04:32.232Z,100407.38
2022-12-19T18:07:01.891Z,100587.88
2022-12-19T18:09:31.176Z,100616.25
2022-12-19T18:12:01.935Z,100491.88
2022-12-19T18:14:31.245Z,100514.88
2022-12-19T18:17:02.001Z,100484.41
2022-12-19T18:19:33.753Z,100421.88
2022-12-19T18:22:03.064Z,100483.94
2022-12-19T18:24:32.424Z,100414.50
2022-12-19T18:27:03.193Z,100326.56
2022-12-19T18:29:32.493Z,100418.63
2022-12-19T18:32:01.817Z,100537.84
2022-12-19T18:34:33.301Z,100552.91
2022-12-19T18:37:03.150Z,100430.13
2022-12-19T18:39:34.102Z,100411.25
2022-12-19T18:42:21.502Z,100398.50
2022-12-19T18:44:50.871Z,100291.09
2022-12-19T18:47:24.334Z,100421.69
2022-12-19T18:49:54.459Z,100470.91
2022-12-19T18:52:23.708Z,100346.88
2022-12-19T18:54:53.044Z,100417.50
2022-12-19T18:57:23.800Z,100531.72
2022-12-19T18:59:53.157Z,100462.66
2022-12-19T19:02:28.583Z,100469.56
2022-12-19T19:04:58.077Z,100520.53
2022-12-19T19:07:27.328Z,100530.66
2022-12-19T19:09:56.623Z,100356.94
2022-12-19T19:12:27.385Z,100456.59
2022-12-19T19:14:56.606Z,100439.41
2022-12-19T19:17:31.005Z,100473.84
2022-12-19T19:20:00.548Z,100419.50
2022-12-19T19:22:30.109Z,100396.00
2022-12-19T19:25:00.127Z,100457.22
2022-12-19T19:27:30.935Z,100489.16
2022-12-19T19:30:00.978Z,100355.94
2022-12-19T19:32:30.366Z,100475.00
2022-12-19T19:34:59.675Z,100358.78
2022-12-19T19:37:30.190Z,100310.22
2022-12-19T19:39:59.493Z,100399.84
2022-12-19T19:42:30.277Z,100464.72
2022-12-19T19:44:59.601Z,100396.75
2022-12-19T19:47:31.739Z,100449.88
2022-12-19T19:50:01.092Z,100338.69
2022-12-19T19:52:30.407Z,100389.38
2022-12-19T19:54:59.725Z,100449.56
2022-12-19T19:57:30.573Z,100471.72
2022-12-19T19:59:59.808Z,100222.94
2022-12-19T20:02:29.445Z,100395.19
2022-12-19T20:04:58.742Z,100359.44
2022-12-19T20:07:28.541Z,100370.91
2022-12-19T20:09:58.563Z,100274.50
2022-12-19T20:12:27.908Z,100239.22
2022-12-19T20:14:58.791Z,100299.94
2022-12-19T20:17:28.184Z,100459.31
2022-12-19T20:19:57.468Z,100308.06
2022-12-19T20:22:26.724Z,100369.78
2022-12-19T20:24:55.997Z,100183.78
2022-12-19T20:27:25.304Z,100261.56
2022-12-19T20:29:54.591Z,100439.97
2022-12-19T20:32:25.504Z,100387.25
2022-12-19T20:34:54.891Z,100331.25
2022-12-19T20:37:24.211Z,100423.97
2022-12-19T20:39:53.838Z,100278.41
2022-12-19T20:42:23.093Z,100352.19
2022-12-19T20:44:52.475Z,100291.56
2022-12-19T20:47:21.728Z,100400.31
2022-12-19T20:49:52.537Z,100271.53
2022-12-19T20:52:21.813Z,100349.66
2022-12-19T20:54:51.106Z,100345.44
2022-12-19T20:57:20.348Z,100410.91
2022-12-19T20:59:49.643Z,100368.25
2022-12-19T21:02:19.054Z,100400.84
2022-12-19T21:04:48.442Z,100405.78
2022-12-19T21:07:19.285Z,100232.00
2022-12-19T21:09:50.612Z,100368.34
2022-12-19T21:12:19.872Z,100300.25
2022-12-19T21:14:49.149Z,100301.38
2022-12-19T21:17:18.419Z,100318.94
2022-12-19T21:19:47.694Z,100225.50
2022-12-19T21:22:19.674Z,100250.00
2022-12-19T21:24:49.042Z,100273.94
2022-12-19T21:27:18.314Z,100074.34
2022-12-19T21:29:47.609Z,100328.25
2022-12-19T21:32:18.998Z,100244.84
2022-12-19T21:34:48.631Z,100217.22
2022-12-19T21:37:19.454Z,100357.06
2022-12-19T21:39:48.721Z,100309.78
2022-12-19T21:42:17.914Z,100175.75
2022-12-19T21:44:47.239Z,100286.69
2022-12-19T21:47:17.058Z,100196.41
2022-12-19T21:49:46.437Z,100264.34
2022-12-19T21:52:15.641Z,100287.13
2022-12-19T21:54:46.356Z,100203.34
2022-12-19T21:57:15.729Z,100145.94
2022-12-19T21:59:45.194Z,100202.78
2022-12-19T22:02:14.671Z,100341.09
2022-12-19T22:04:44.068Z,100197.59
2022-12-19T22:07:13.323Z,100279.78
2022-12-19T22:09:43.062Z,100179.06
2022-12-19T22:12:14.911Z,100205.75
2022-12-19T22:14:45.269Z,100243.63
2022-12-19T22:17:14.633Z,100263.84
2022-12-19T22:19:43.906Z,100265.19
2022-12-19T22:22:13.243Z,100091.00
2022-12-19T22:24:42.613Z,100253.50
2022-12-19T22:27:13.370Z,100113.91
2022-12-19T22:29:42.649Z,100158.06
2022-12-19T22:32:11.791Z,100294.81
2022-12-19T22:34:41.083Z,100264.63
2022-12-19T22:37:10.353Z,100305.59
2022-12-19T22:39:39.828Z,100199.50
2022-12-19T22:42:09.143Z,100243.22
2022-12-19T22:44:40.118Z,100263.53
2022-12-19T22:47:09.426Z,100223.28
2022-12-19T22:49:38.725Z,100136.16
2022-12-19T22:52:07.987Z,100198.72
2022-12-19T22:54:37.228Z,100153.53
2022-12-19T22:57:06.521Z,100310.19
2022-12-19T22:59:35.915Z,100229.16
2022-12-19T23:02:07.028Z,100183.47
2022-12-19T23:04:37.908Z,100267.78
2022-12-19T23:07:07.237Z,100230.03
2022-12-19T23:09:36.581Z,100266.66
2022-12-19T23:12:06.096Z,100216.47
2022-12-19T23:14:35.313Z,100261.09
2022-12-19T23:17:06.154Z,100256.81
2022-12-19T23:19:35.425Z,100113.19
2022-12-19T23:22:04.765Z,100271.50
2022-12-19T23:24:34.311Z,100215.91
2022-12-19T23:27:03.738Z,100272.50
2022-12-19T23:29:32.978Z,100133.72
2022-12-19T23:32:02.263Z,100237.22
2022-12-19T23:34:33.014Z,100273.63
2022-12-19T23:37:11.273Z,100310.78
2022-12-19T23:39:41.262Z,100196.72
2022-12-19T23:42:10.537Z,100213.03
2022-12-19T23:44:39.753Z,100306.72
2022-12-19T23:47:09.027Z,100288.06
2022-12-19T23:49:40.245Z,100254.16
2022-12-19T23:52:09.595Z,100276.25
2022-12-19T23:54:39.002Z,100260.38
2022-12-19T23:57:08.461Z,100225.72
2022-12-19T23:59:38.011Z,100167.56
